Tryon, North Carolina
Current Conditions -  °F | °C
As of 9:53 AM on Wednesday 22 Oct 2014 (Local Time) from KGSP Reporting Station
Clear Clear  
Wind Chill: 57°   Ceiling: Unl
Heat Index: 57°   Visibility: 10mi
Dew Point: 39°   Wind: 14mph
Humidity: 51%   Direction: 350°N
Pressure: 30.06"   Gusts: 18mph
Location:  35.21°N, 82.24°W
Report Text: KGSP 221353Z 35012G16KT 10SM CLR 14/04 A3006 RMK AO2 SLP176 T01390039
Loading
Personal Weather Stations






























Interactive Weather Map
Tropical Storm Tracking
New forecast layout! Learn more

10-Day Weather Forecast

Advertisements
Track Severe Weather on mobile